createdAt,value
2022-09-10T00:00:15.673Z,4.67
2022-09-10T00:02:45.475Z,3.80
2022-09-10T00:05:15.082Z,3.90
2022-09-10T00:07:45.067Z,4.10
2022-09-10T00:10:16.307Z,4.60
2022-09-10T00:12:47.712Z,5.00
2022-09-10T00:15:17.821Z,4.33
2022-09-10T00:17:47.870Z,4.53
2022-09-10T00:20:17.658Z,4.52
2022-09-10T00:22:49.081Z,4.43
2022-09-10T00:25:18.965Z,5.22
2022-09-10T00:27:48.772Z,5.37
2022-09-10T00:30:18.770Z,5.25
2022-09-10T00:32:49.895Z,4.95
2022-09-10T00:35:22.515Z,5.62
2022-09-10T00:37:52.250Z,5.50
2022-09-10T00:40:22.011Z,6.22
2022-09-10T00:42:51.473Z,6.60
2022-09-10T00:45:24.376Z,6.57
2022-09-10T00:47:57.950Z,7.40
2022-09-10T00:50:33.227Z,7.12
2022-09-10T00:53:06.007Z,7.60
2022-09-10T00:55:38.324Z,7.43
2022-09-10T00:58:12.767Z,7.28
2022-09-10T01:00:43.067Z,7.13
2022-09-10T01:03:15.777Z,7.50
2022-09-10T01:05:48.111Z,7.40
2022-09-10T01:08:19.650Z,8.33
2022-09-10T01:10:52.900Z,8.85
2022-09-10T01:13:28.893Z,9.08
2022-09-10T01:16:10.228Z,9.50
2022-09-10T01:18:57.671Z,9.40
2022-09-10T01:21:30.884Z,9.60
2022-09-10T01:24:21.557Z,10.30
2022-09-10T01:27:13.694Z,10.50
2022-09-10T01:30:04.584Z,9.03
2022-09-10T01:32:53.626Z,9.35
2022-09-10T01:35:37.083Z,9.33
2022-09-10T01:40:49.846Z,9.63
2022-09-10T01:43:22.843Z,9.00
2022-09-10T01:45:57.102Z,8.65
2022-09-10T01:48:32.374Z,8.83
2022-09-10T01:51:14.970Z,9.23
2022-09-10T01:54:00.120Z,7.67
2022-09-10T01:56:44.427Z,7.80
2022-09-10T01:59:26.168Z,9.00
2022-09-10T02:02:01.239Z,8.80
2022-09-10T02:04:32.318Z,8.97
2022-09-10T02:07:05.842Z,9.00
2022-09-10T02:09:35.814Z,9.43
2022-09-10T02:12:12.645Z,9.74
2022-09-10T02:14:53.957Z,8.40
2022-09-10T02:17:33.874Z,9.77
2022-09-10T02:20:05.966Z,10.37
2022-09-10T02:22:37.745Z,9.80
2022-09-10T02:25:09.826Z,9.57
2022-09-10T02:27:42.522Z,10.18
2022-09-10T02:30:14.659Z,10.40
2022-09-10T02:32:44.784Z,10.65
2022-09-10T02:35:15.528Z,10.55
2022-09-10T02:37:47.324Z,10.73
2022-09-10T02:40:18.498Z,10.78
2022-09-10T02:42:48.542Z,10.43
2022-09-10T02:45:20.083Z,11.07
2022-09-10T02:47:50.382Z,10.33
2022-09-10T02:50:20.456Z,11.77
2022-09-10T02:56:13.995Z,11.53
2022-09-10T02:58:45.159Z,11.83
2022-09-10T03:01:19.385Z,11.60
2022-09-10T03:03:54.891Z,12.00
2022-09-10T03:06:25.787Z,11.45
2022-09-10T03:08:55.873Z,12.43
2022-09-10T03:11:27.329Z,11.55
2022-09-10T03:13:59.272Z,11.13
2022-09-10T03:16:29.150Z,10.93
2022-09-10T03:18:59.275Z,11.73
2022-09-10T03:21:29.433Z,12.77
2022-09-10T03:23:59.943Z,10.60
2022-09-10T03:26:31.538Z,11.77
2022-09-10T03:29:01.555Z,11.50
2022-09-10T03:31:32.777Z,12.00
2022-09-10T03:34:03.307Z,12.37
2022-09-10T03:36:33.291Z,12.77
2022-09-10T03:39:03.201Z,13.93
2022-09-10T03:41:33.197Z,13.10
2022-09-10T03:44:03.258Z,13.93
2022-09-10T03:46:33.181Z,14.40
2022-09-10T03:49:03.880Z,13.87
2022-09-10T03:51:35.129Z,15.70
2022-09-10T03:54:06.309Z,13.50
2022-09-10T03:56:36.110Z,15.13
2022-09-10T03:59:06.124Z,14.40
2022-09-10T04:01:36.934Z,14.57
2022-09-10T04:04:10.348Z,15.18
2022-09-10T04:06:40.462Z,14.30
2022-09-10T04:09:11.938Z,14.95
2022-09-10T04:11:41.565Z,14.20
2022-09-10T04:14:12.074Z,14.35
2022-09-10T04:16:43.307Z,15.35
2022-09-10T04:19:14.972Z,14.90
2022-09-10T04:21:44.733Z,15.10
2022-09-10T04:24:14.253Z,14.87
2022-09-10T04:26:44.486Z,16.60
2022-09-10T04:29:16.093Z,14.87
2022-09-10T04:31:46.639Z,15.20
2022-09-10T04:34:18.115Z,14.77
2022-09-10T04:36:48.017Z,15.00
2022-09-10T04:39:18.182Z,15.17
2022-09-10T04:41:49.631Z,14.70
2022-09-10T04:44:20.112Z,15.50
2022-09-10T04:46:50.038Z,14.47
2022-09-10T04:49:19.825Z,13.93
2022-09-10T04:51:50.146Z,15.63
2022-09-10T04:54:20.162Z,15.30
2022-09-10T04:56:51.609Z,15.40
2022-09-10T04:59:21.430Z,14.83
2022-09-10T05:01:51.578Z,14.90
2022-09-10T05:04:21.180Z,15.60
2022-09-10T05:06:51.165Z,15.97
2022-09-10T05:09:22.054Z,15.13
2022-09-10T05:11:51.805Z,15.20
2022-09-10T05:14:23.137Z,14.57
2022-09-10T05:16:53.171Z,15.17
2022-09-10T05:19:23.177Z,16.90
2022-09-10T05:21:57.587Z,15.83
2022-09-10T05:24:27.866Z,16.07
2022-09-10T05:26:57.690Z,16.07
2022-09-10T05:29:27.650Z,15.90
2022-09-10T05:31:57.449Z,16.30
2022-09-10T05:34:27.790Z,17.27
2022-09-10T05:36:57.599Z,16.37
2022-09-10T05:39:27.747Z,16.05
2022-09-10T05:41:57.760Z,16.13
2022-09-10T05:44:27.585Z,16.77
2022-09-10T05:46:57.630Z,16.40
2022-09-10T05:49:29.763Z,16.40
2022-09-10T05:51:59.572Z,17.03
2022-09-10T05:54:29.989Z,16.37
2022-09-10T05:57:00.091Z,16.67
2022-09-10T05:59:30.154Z,16.35
2022-09-10T06:02:00.064Z,17.10
2022-09-10T06:04:30.799Z,17.03
2022-09-10T06:07:01.792Z,17.20
2022-09-10T06:09:31.604Z,18.33
2022-09-10T06:12:08.374Z,17.24
2022-09-10T06:14:38.381Z,17.37
2022-09-10T06:17:08.458Z,17.47
2022-09-10T06:19:40.155Z,17.63
2022-09-10T06:22:11.559Z,17.63
2022-09-10T06:24:43.440Z,18.23
2022-09-10T06:27:13.250Z,18.63
2022-09-10T06:29:42.984Z,18.47
2022-09-10T06:32:13.213Z,17.97
2022-09-10T06:34:42.939Z,18.00
2022-09-10T06:37:13.217Z,18.43
2022-09-10T06:39:43.273Z,19.53
2022-09-10T06:42:13.576Z,18.60
2022-09-10T06:44:53.985Z,19.30
2022-09-10T06:50:00.064Z,17.90
2022-09-10T06:52:31.052Z,19.10
2022-09-10T06:55:02.586Z,20.13
2022-09-10T06:57:34.046Z,19.03
2022-09-10T07:00:06.665Z,18.57
2022-09-10T07:02:37.269Z,18.30
2022-09-10T07:05:08.120Z,18.10
2022-09-10T07:07:39.135Z,18.60
2022-09-10T07:10:11.548Z,18.02
2022-09-10T07:12:41.211Z,18.15
2022-09-10T07:15:11.894Z,18.05
2022-09-10T07:17:41.786Z,17.73
2022-09-10T07:20:14.780Z,18.40
2022-09-10T07:22:46.494Z,18.07
2022-09-10T07:25:16.971Z,17.90
2022-09-10T07:27:57.744Z,17.35
2022-09-10T07:30:30.866Z,17.67
2022-09-10T07:33:01.078Z,16.63
2022-09-10T07:35:33.673Z,17.40
2022-09-10T07:38:05.051Z,16.40
2022-09-10T07:40:36.883Z,17.95
2022-09-10T07:43:08.185Z,17.83
2022-09-10T07:45:38.450Z,17.30
2022-09-10T07:48:09.526Z,17.57
2022-09-10T07:50:40.523Z,17.57
2022-09-10T07:53:11.136Z,17.93
2022-09-10T07:55:41.716Z,19.17
2022-09-10T07:58:11.836Z,19.00
2022-09-10T08:00:43.284Z,18.97
2022-09-10T08:03:13.373Z,18.70
2022-09-10T08:05:46.032Z,19.13
2022-09-10T08:08:16.121Z,16.50
2022-09-10T08:10:49.619Z,16.87
2022-09-10T08:13:20.055Z,17.80
2022-09-10T08:15:50.344Z,17.20
2022-09-10T08:18:20.949Z,17.98
2022-09-10T08:20:55.927Z,18.87
2022-09-10T08:23:25.736Z,18.23
2022-09-10T08:25:55.564Z,18.23
2022-09-10T08:28:27.197Z,21.07
2022-09-10T08:31:02.791Z,22.65
2022-09-10T08:33:39.272Z,25.10
2022-09-10T08:36:14.541Z,27.48
2022-09-10T08:38:45.819Z,24.82
2022-09-10T08:41:35.115Z,25.25
2022-09-10T08:44:13.361Z,21.07
2022-09-10T08:46:51.524Z,21.77
2022-09-10T08:49:51.964Z,20.72
2022-09-10T08:52:43.208Z,20.13
2022-09-10T08:55:25.442Z,19.15
2022-09-10T08:58:03.202Z,19.10
2022-09-10T09:00:39.065Z,17.95
2022-09-10T09:03:35.577Z,19.67
2022-09-10T09:06:12.907Z,19.83
2022-09-10T09:08:49.757Z,18.90
2022-09-10T09:11:29.522Z,17.80
2022-09-10T09:14:14.220Z,18.23
2022-09-10T09:16:55.573Z,17.95
2022-09-10T09:19:34.450Z,15.80
2022-09-10T09:22:15.758Z,16.17
2022-09-10T09:25:01.801Z,14.90
2022-09-10T09:27:35.581Z,16.73
2022-09-10T09:30:23.173Z,14.90
2022-09-10T09:32:54.353Z,15.17
2022-09-10T09:35:27.142Z,14.33
2022-09-10T09:38:09.550Z,12.95
2022-09-10T09:40:47.963Z,11.63
2022-09-10T09:43:37.256Z,11.97
2022-09-10T09:46:11.502Z,11.60
2022-09-10T09:48:42.779Z,10.98
2022-09-10T09:51:21.444Z,9.90
2022-09-10T09:54:12.181Z,9.07
2022-09-10T09:56:30.568Z,9.27
2022-09-10T09:59:04.315Z,6.70
2022-09-10T10:01:34.832Z,5.53
2022-09-10T10:04:09.329Z,5.70
2022-09-10T10:06:49.750Z,6.33
2022-09-10T10:09:27.629Z,6.60
2022-09-10T10:12:03.863Z,7.95
2022-09-10T10:14:39.801Z,7.08
2022-09-10T10:17:38.912Z,6.47
2022-09-10T10:20:16.516Z,7.08
2022-09-10T10:22:49.328Z,7.87
2022-09-10T10:25:38.161Z,5.42
2022-09-10T10:28:12.850Z,5.83
2022-09-10T10:30:43.147Z,5.90
2022-09-10T10:33:15.965Z,7.20
2022-09-10T10:36:06.271Z,6.62
2022-09-10T10:38:40.180Z,7.00
2022-09-10T10:41:39.647Z,8.17
2022-09-10T10:44:24.173Z,8.03
2022-09-10T10:47:02.078Z,9.47
2022-09-10T10:49:39.954Z,9.33
2022-09-10T10:52:25.881Z,10.13
2022-09-10T10:55:13.297Z,10.97
2022-09-10T10:58:06.829Z,11.70
2022-09-10T11:00:40.614Z,12.80
2022-09-10T11:03:22.392Z,12.73
2022-09-10T11:05:55.948Z,12.57
2022-09-10T11:08:42.885Z,13.13
2022-09-10T11:11:18.306Z,12.40
2022-09-10T11:13:53.820Z,11.90
2022-09-10T11:16:46.269Z,10.98
2022-09-10T11:19:38.183Z,10.00
2022-09-10T11:22:21.295Z,11.23
2022-09-10T11:24:54.087Z,11.23
2022-09-10T11:27:35.877Z,11.67
2022-09-10T11:30:15.582Z,12.10
2022-09-10T11:33:03.247Z,14.57
2022-09-10T11:35:36.053Z,14.50
2022-09-10T11:38:27.510Z,14.65
2022-09-10T11:41:00.356Z,15.60
2022-09-10T11:43:37.110Z,17.50
2022-09-10T11:46:11.186Z,17.30
2022-09-10T11:48:49.431Z,17.47
2022-09-10T11:51:27.984Z,18.97
2022-09-10T11:53:58.549Z,20.10
2022-09-10T11:56:36.981Z,21.40
2022-09-10T11:59:09.786Z,22.90
2022-09-10T12:01:49.270Z,23.60
2022-09-10T12:04:43.665Z,24.40
2022-09-10T12:07:36.133Z,23.45
2022-09-10T12:10:14.621Z,24.35
2022-09-10T12:12:47.557Z,25.45
2022-09-10T12:15:25.351Z,27.40
2022-09-10T12:17:58.696Z,26.30
2022-09-10T12:20:37.666Z,25.50
2022-09-10T12:23:08.196Z,26.68
2022-09-10T12:25:37.973Z,24.77
2022-09-10T12:28:13.371Z,25.65
2022-09-10T12:30:46.267Z,25.95
2022-09-10T12:33:22.312Z,24.93
2022-09-10T12:35:53.195Z,23.97
2022-09-10T12:38:59.324Z,21.97
2022-09-10T12:41:32.110Z,21.60
2022-09-10T12:44:02.900Z,21.60
2022-09-10T12:46:33.722Z,19.50
2022-09-10T12:49:09.529Z,18.40
2022-09-10T12:51:53.568Z,17.07
2022-09-10T12:54:28.750Z,13.30
2022-09-10T12:57:01.541Z,12.93
2022-09-10T12:59:43.124Z,10.60
2022-09-10T13:02:27.949Z,10.80
2022-09-10T13:05:09.453Z,7.17
2022-09-10T13:07:41.558Z,5.43
2022-09-10T13:10:27.111Z,5.50
2022-09-10T13:13:00.059Z,6.47
2022-09-10T13:15:33.344Z,5.30
2022-09-10T13:18:12.112Z,3.97
2022-09-10T13:20:41.831Z,3.33
2022-09-10T13:23:15.518Z,3.50
2022-09-10T13:25:47.579Z,4.07
2022-09-10T13:28:34.937Z,4.13
2022-09-10T13:31:11.300Z,3.50
2022-09-10T13:33:56.007Z,3.72
2022-09-10T13:36:48.149Z,3.90
2022-09-10T13:39:26.715Z,5.50
2022-09-10T13:42:14.304Z,4.00
2022-09-10T13:45:20.093Z,4.67
2022-09-10T13:47:55.587Z,5.13
2022-09-10T13:50:28.708Z,4.97
2022-09-10T13:53:01.977Z,4.60
2022-09-10T13:55:34.027Z,3.63
2022-09-10T13:58:14.007Z,3.97
2022-09-10T14:00:52.683Z,5.60
2022-09-10T14:03:28.494Z,3.20
2022-09-10T14:06:00.245Z,4.00
2022-09-10T14:08:35.814Z,4.93
2022-09-10T14:11:14.378Z,2.30
2022-09-10T14:13:47.153Z,2.03
2022-09-10T14:16:27.220Z,2.03
2022-09-10T14:18:59.125Z,2.50
2022-09-10T14:21:29.594Z,3.20
2022-09-10T14:24:00.961Z,3.80
2022-09-10T14:26:33.735Z,4.30
2022-09-10T14:29:06.620Z,4.42
2022-09-10T14:31:38.352Z,4.70
2022-09-10T14:34:34.792Z,4.08
2022-09-10T14:37:07.850Z,4.30
2022-09-10T14:39:39.145Z,4.33
2022-09-10T14:42:29.210Z,4.10
2022-09-10T14:44:58.952Z,4.30
2022-09-10T14:47:33.070Z,4.90
2022-09-10T14:50:27.804Z,4.57
2022-09-10T14:52:58.160Z,4.50
2022-09-10T14:55:33.037Z,4.63
2022-09-10T14:58:02.851Z,4.70
2022-09-10T15:00:33.906Z,4.58
2022-09-10T15:03:03.890Z,4.23
2022-09-10T15:05:33.618Z,3.90
2022-09-10T15:08:03.564Z,3.83
2022-09-10T15:10:33.359Z,4.60
2022-09-10T15:13:03.165Z,4.20
2022-09-10T15:15:33.026Z,3.97
2022-09-10T15:18:03.030Z,3.50
2022-09-10T15:20:32.534Z,3.50
2022-09-10T15:23:02.260Z,2.90
2022-09-10T15:25:38.411Z,3.07
2022-09-10T15:28:08.233Z,3.00
2022-09-10T15:30:38.272Z,2.90
2022-09-10T15:33:09.403Z,2.70
2022-09-10T15:35:40.214Z,2.73
2022-09-10T15:38:15.838Z,3.30
2022-09-10T15:40:47.260Z,4.07
2022-09-10T15:43:22.545Z,4.10
2022-09-10T15:45:52.287Z,3.70
2022-09-10T15:48:22.018Z,4.47
2022-09-10T15:50:51.729Z,3.77
2022-09-10T15:53:21.765Z,5.75
2022-09-10T15:55:51.490Z,5.37
2022-09-10T15:58:21.141Z,5.40
2022-09-10T16:00:51.161Z,5.20
2022-09-10T16:03:21.377Z,4.97
2022-09-10T16:05:51.091Z,4.80
2022-09-10T16:08:20.834Z,4.58
2022-09-10T16:10:52.492Z,4.62
2022-09-10T16:13:22.298Z,4.47
2022-09-10T16:16:03.576Z,4.87
2022-09-10T16:18:34.193Z,5.00
2022-09-10T16:21:11.977Z,4.87
2022-09-10T16:23:43.915Z,5.10
2022-09-10T16:26:16.724Z,4.93
2022-09-10T16:28:57.227Z,5.80
2022-09-10T16:31:30.207Z,5.70
2022-09-10T16:34:03.558Z,5.90
2022-09-10T16:36:36.790Z,6.28
2022-09-10T16:39:10.691Z,6.57
2022-09-10T16:41:45.845Z,7.13
2022-09-10T16:44:17.520Z,7.08
2022-09-10T16:46:48.118Z,13.67
2022-09-10T16:49:19.580Z,10.27
2022-09-10T16:51:49.488Z,7.60
2022-09-10T16:54:20.810Z,5.87
2022-09-10T16:56:50.985Z,6.15
2022-09-10T16:59:23.996Z,5.83
2022-09-10T17:01:54.835Z,5.47
2022-09-10T17:04:29.018Z,5.08
2022-09-10T17:06:58.923Z,5.33
2022-09-10T17:09:28.707Z,5.37
2022-09-10T17:11:58.475Z,6.53
2022-09-10T17:14:27.918Z,6.83
2022-09-10T17:16:58.533Z,6.43
2022-09-10T17:19:29.262Z,5.00
2022-09-10T17:21:58.740Z,5.35
2022-09-10T17:24:28.557Z,5.90
2022-09-10T17:26:58.283Z,6.60
2022-09-10T17:29:28.091Z,6.60
2022-09-10T17:31:58.497Z,6.43
2022-09-10T17:34:28.509Z,6.97
2022-09-10T17:36:58.246Z,6.70
2022-09-10T17:39:29.246Z,7.63
2022-09-10T17:41:59.069Z,8.30
2022-09-10T17:44:28.848Z,8.23
2022-09-10T17:46:58.598Z,8.53
2022-09-10T17:49:28.506Z,8.03
2022-09-10T17:52:00.166Z,7.30
2022-09-10T17:54:30.189Z,7.90
2022-09-10T17:56:59.956Z,7.67
2022-09-10T17:59:30.029Z,8.33
2022-09-10T18:01:59.644Z,8.30
2022-09-10T18:04:30.652Z,7.83
2022-09-10T18:07:01.025Z,8.10
2022-09-10T18:09:30.832Z,7.80
2022-09-10T18:12:02.113Z,8.27
2022-09-10T18:14:32.104Z,9.13
2022-09-10T18:17:03.139Z,8.13
2022-09-10T18:19:33.222Z,9.73
2022-09-10T18:22:02.939Z,9.33
2022-09-10T18:24:32.749Z,9.87
2022-09-10T18:27:04.125Z,9.20
2022-09-10T18:29:34.992Z,9.00
2022-09-10T18:32:07.846Z,8.33
2022-09-10T18:34:39.243Z,9.27
2022-09-10T18:37:09.085Z,8.93
2022-09-10T18:39:38.928Z,9.47
2022-09-10T18:42:11.197Z,9.25
2022-09-10T18:44:40.987Z,9.70
2022-09-10T18:47:28.013Z,9.53
2022-09-10T18:49:43.930Z,10.23
2022-09-10T18:52:13.664Z,10.30
2022-09-10T18:54:46.645Z,11.00
2022-09-10T18:57:15.749Z,10.03
2022-09-10T18:59:45.526Z,10.53
2022-09-10T19:02:17.121Z,10.30
2022-09-10T19:05:09.765Z,11.37
2022-09-10T19:07:18.853Z,11.50
2022-09-10T19:09:48.601Z,12.30
2022-09-10T19:12:19.298Z,13.07
2022-09-10T19:14:49.135Z,12.47
2022-09-10T19:17:18.935Z,12.27
2022-09-10T19:19:50.054Z,12.25
2022-09-10T19:22:19.583Z,13.08
2022-09-10T19:24:54.850Z,12.47
2022-09-10T19:27:21.783Z,12.27
2022-09-10T19:29:51.747Z,13.03
2022-09-10T19:32:21.279Z,14.07
2022-09-10T19:34:52.059Z,13.20
2022-09-10T19:37:21.788Z,13.33
2022-09-10T19:39:51.649Z,13.90
2022-09-10T19:42:21.172Z,13.60
2022-09-10T19:44:50.918Z,14.23
2022-09-10T19:47:20.830Z,14.30
2022-09-10T19:49:51.346Z,13.53
2022-09-10T19:52:21.466Z,14.35
2022-09-10T19:54:51.515Z,14.65
2022-09-10T19:57:21.543Z,13.90
2022-09-10T19:59:52.177Z,14.03
2022-09-10T20:02:21.729Z,13.75
2022-09-10T20:04:51.611Z,15.67
2022-09-10T20:07:21.665Z,14.23
2022-09-10T20:09:51.855Z,14.50
2022-09-10T20:12:22.465Z,14.23
2022-09-10T20:14:52.207Z,15.30
2022-09-10T20:17:22.020Z,15.03
2022-09-10T20:19:51.842Z,14.37
2022-09-10T20:22:21.488Z,14.50
2022-09-10T20:24:51.899Z,15.67
2022-09-10T20:27:21.351Z,16.40
2022-09-10T20:29:51.120Z,16.27
2022-09-10T20:32:20.851Z,15.85
2022-09-10T20:34:50.666Z,16.73
2022-09-10T20:37:20.721Z,15.93
2022-09-10T20:39:51.084Z,16.23
2022-09-10T20:42:20.934Z,16.67
2022-09-10T20:44:50.673Z,17.40
2022-09-10T20:47:20.127Z,17.07
2022-09-10T20:49:49.861Z,17.00
2022-09-10T20:52:19.605Z,16.43
2022-09-10T20:54:50.129Z,17.45
2022-09-10T20:57:21.141Z,15.70
2022-09-10T20:59:50.887Z,16.40
2022-09-10T21:02:20.768Z,15.10
2022-09-10T21:04:50.648Z,16.40
2022-09-10T21:07:20.696Z,17.05
2022-09-10T21:09:50.443Z,16.13
2022-09-10T21:12:20.255Z,15.67
2022-09-10T21:14:50.164Z,17.10
2022-09-10T21:17:19.897Z,17.00
2022-09-10T21:19:49.715Z,16.87
2022-09-10T21:22:20.131Z,15.67
2022-09-10T21:24:49.872Z,16.00
2022-09-10T21:27:19.663Z,15.63
2022-09-10T21:29:49.407Z,15.97
2022-09-10T21:32:19.450Z,15.18
2022-09-10T21:34:49.506Z,16.10
2022-09-10T21:37:19.250Z,16.10
2022-09-10T21:39:49.173Z,15.37
2022-09-10T21:42:18.943Z,15.68
2022-09-10T21:44:48.685Z,14.73
2022-09-10T21:47:18.750Z,15.60
2022-09-10T21:49:48.799Z,15.32
2022-09-10T21:52:18.578Z,15.20
2022-09-10T21:54:48.122Z,15.95
2022-09-10T21:57:17.869Z,16.17
2022-09-10T21:59:48.390Z,16.62
2022-09-10T22:02:18.028Z,16.70
2022-09-10T22:04:47.747Z,16.27
2022-09-10T22:07:17.559Z,16.03
2022-09-10T22:09:47.314Z,17.10
2022-09-10T22:12:16.766Z,15.23
2022-09-10T22:14:46.669Z,16.10
2022-09-10T22:17:17.693Z,15.63
2022-09-10T22:19:47.241Z,16.10
2022-09-10T22:22:16.998Z,17.10
2022-09-10T22:24:46.726Z,18.40
2022-09-10T22:27:16.726Z,16.23
2022-09-10T22:29:46.181Z,16.05
2022-09-10T22:32:15.910Z,15.27
2022-09-10T22:34:46.850Z,16.97
2022-09-10T22:37:16.339Z,16.85
2022-09-10T22:39:46.452Z,18.20
2022-09-10T22:42:16.220Z,16.07
2022-09-10T22:44:45.970Z,16.57
2022-09-10T22:47:15.744Z,16.33
2022-09-10T22:49:47.463Z,18.33
2022-09-10T22:52:17.222Z,18.23
2022-09-10T22:54:46.963Z,17.50
2022-09-10T22:57:17.283Z,16.93
2022-09-10T22:59:47.289Z,17.77
2022-09-10T23:02:16.759Z,18.02
2022-09-10T23:04:46.219Z,17.25
2022-09-10T23:07:16.447Z,18.10
2022-09-10T23:09:46.763Z,17.50
2022-09-10T23:12:16.219Z,18.30
2022-09-10T23:14:45.963Z,18.40
2022-09-10T23:17:18.500Z,18.33
2022-09-10T23:19:47.632Z,19.60
2022-09-10T23:22:17.538Z,19.07
2022-09-10T23:24:47.275Z,20.07
2022-09-10T23:27:17.016Z,19.27
2022-09-10T23:29:48.592Z,22.32
2022-09-10T23:32:18.319Z,20.57
2022-09-10T23:34:48.145Z,22.03
2022-09-10T23:37:17.768Z,22.80
2022-09-10T23:39:47.549Z,20.77
2022-09-10T23:42:17.444Z,20.77
2022-09-10T23:44:47.190Z,21.77
2022-09-10T23:47:17.224Z,22.77
2022-09-10T23:49:47.863Z,22.40
2022-09-10T23:52:17.605Z,22.32
2022-09-10T23:54:47.360Z,22.87
2022-09-10T23:57:17.529Z,23.90
2022-09-10T23:59:47.292Z,22.63
